Time;durP1;ratioP1;P1;durP2;ratioP2;P2;SDS_P1;SDS_P2;PMS_P1;PMS_P2;Temp;Humidity;BMP_temperature;BMP_pressure;BME280_temperature;BME280_humidity;BME280_pressure;Samples;Min_cycle;Max_cycle;Signal;HPM_P1;HPM_P2
2023/03/06 00:00:56;;;;;;;7.10;6.40;;;;;;;1.62;100.00;100765.81;4949353;28;20057;-82
2023/03/06 00:03:24;;;;;;;8.73;6.50;;;;;;;1.60;100.00;100757.13;4960678;28;20379;-82
2023/03/06 00:05:50;;;;;;;10.30;6.90;;;;;;;1.59;100.00;100750.97;4974595;28;20081;-82
2023/03/06 00:08:15;;;;;;;12.70;7.20;;;;;;;1.55;100.00;100748.75;4974858;28;20193;-82
2023/03/06 00:10:41;;;;;;;9.27;7.33;;;;;;;1.52;100.00;100753.41;4977556;28;20043;-82
2023/03/06 00:13:10;;;;;;;11.87;7.90;;;;;;;1.49;100.00;100751.03;4978237;28;20049;-82
2023/03/06 00:15:36;;;;;;;9.53;7.87;;;;;;;1.46;100.00;100748.69;4978063;28;20039;-82
2023/03/06 00:18:03;;;;;;;10.03;7.37;;;;;;;1.41;100.00;100748.31;4977890;28;20050;-82
2023/03/06 00:20:29;;;;;;;8.73;7.17;;;;;;;1.44;100.00;100744.50;4977634;28;20045;-82
2023/03/06 00:22:55;;;;;;;10.97;7.13;;;;;;;1.34;100.00;100748.06;4974791;28;20325;-82
2023/03/06 00:25:21;;;;;;;8.63;7.30;;;;;;;1.34;100.00;100744.59;4977556;28;20068;-82
2023/03/06 00:27:47;;;;;;;10.30;6.80;;;;;;;1.34;100.00;100737.41;4977440;28;20303;-82
2023/03/06 00:30:15;;;;;;;8.70;6.83;;;;;;;1.37;100.00;100740.78;4977563;28;20571;-82
2023/03/06 00:32:40;;;;;;;8.63;6.90;;;;;;;1.35;100.00;100728.41;4977121;28;20069;-82
2023/03/06 00:35:06;;;;;;;9.73;6.83;;;;;;;1.38;100.00;100734.44;4977628;28;20383;-82
2023/03/06 00:37:32;;;;;;;9.47;7.20;;;;;;;1.37;100.00;100730.91;4977532;28;20073;-82
2023/03/06 00:39:57;;;;;;;8.77;6.50;;;;;;;1.41;100.00;100734.13;4977998;28;20046;-82
2023/03/06 00:42:23;;;;;;;8.30;6.57;;;;;;;1.39;100.00;100715.59;4977986;28;20129;-82
2023/03/06 00:44:48;;;;;;;8.37;6.80;;;;;;;1.41;100.00;100723.44;4952602;28;20054;-78
2023/03/06 00:47:17;;;;;;;7.27;6.50;;;;;;;1.42;100.00;100715.28;4976604;28;20637;-78
2023/03/06 00:49:45;;;;;;;10.10;6.80;;;;;;;1.45;100.00;100712.28;4976592;28;20541;-78
2023/03/06 00:52:11;;;;;;;9.33;6.80;;;;;;;1.43;100.00;100706.28;4976604;28;20408;-78
2023/03/06 00:54:37;;;;;;;8.17;6.97;;;;;;;1.42;100.00;100703.78;4977192;28;20049;-78
2023/03/06 00:57:03;;;;;;;9.63;7.10;;;;;;;1.34;100.00;100708.03;4976577;28;20046;-78
2023/03/06 00:59:28;;;;;;;9.80;7.50;;;;;;;1.36;100.00;100713.25;4975369;28;20099;-78
2023/03/06 01:01:53;;;;;;;9.53;7.70;;;;;;;1.30;100.00;100704.00;4976673;28;20483;-78
2023/03/06 01:04:19;;;;;;;9.73;7.50;;;;;;;1.27;100.00;100704.31;4976529;28;20046;-78
2023/03/06 01:06:45;;;;;;;11.97;8.30;;;;;;;1.27;100.00;100703.50;4951766;28;20134;-78
2023/03/06 01:09:10;;;;;;;11.57;8.20;;;;;;;1.26;100.00;100701.81;4975996;28;20064;-78
2023/03/06 01:11:36;;;;;;;10.10;8.47;;;;;;;1.23;100.00;100702.13;4966913;28;20042;-78
2023/03/06 01:14:01;;;;;;;14.07;8.83;;;;;;;1.23;100.00;100700.28;4976254;28;20047;-78
2023/03/06 01:16:27;;;;;;;11.87;8.97;;;;;;;1.23;100.00;100694.13;4976421;28;20502;-78
2023/03/06 01:18:52;;;;;;;12.03;9.50;;;;;;;1.21;100.00;100693.41;4939184;28;20156;-78
2023/03/06 01:21:18;;;;;;;12.03;9.33;;;;;;;1.15;100.00;100694.88;4974862;28;20042;-78
2023/03/06 01:23:43;;;;;;;14.10;9.90;;;;;;;1.14;100.00;100690.53;4936938;28;20785;-78
2023/03/06 01:26:09;;;;;;;14.47;9.90;;;;;;;1.08;100.00;100685.81;4967969;28;20049;-78
2023/03/06 01:28:36;;;;;;;13.70;9.90;;;;;;;1.02;100.00;100692.63;4974418;28;20425;-78
2023/03/06 01:31:02;;;;;;;12.97;9.67;;;;;;;0.95;100.00;100692.38;4976079;28;20046;-78
2023/03/06 01:33:28;;;;;;;14.73;10.37;;;;;;;0.93;100.00;100691.69;4951845;28;20042;-78
2023/03/06 01:35:53;;;;;;;15.10;10.50;;;;;;;0.89;100.00;100686.81;4975705;28;20116;-78
2023/03/06 01:38:18;;;;;;;13.40;10.47;;;;;;;0.88;100.00;100687.81;4967925;28;20320;-78
2023/03/06 01:40:44;;;;;;;15.50;10.80;;;;;;;0.80;100.00;100684.06;4974431;28;20071;-78
2023/03/06 01:43:25;;;;;;;16.87;11.63;;;;;;;0.81;100.00;100680.38;4967028;28;20070;-78
2023/03/06 01:45:50;;;;;;;15.17;11.03;;;;;;;0.76;100.00;100679.19;4967893;28;20068;-78
2023/03/06 01:48:19;;;;;;;16.10;11.67;;;;;;;0.64;100.00;100679.41;4975421;28;20752;-78
2023/03/06 01:50:45;;;;;;;15.07;11.27;;;;;;;0.65;100.00;100666.91;4975963;28;20130;-78
2023/03/06 01:53:11;;;;;;;18.00;12.20;;;;;;;0.66;100.00;100665.91;4975331;28;20285;-78
2023/03/06 01:55:37;;;;;;;17.43;12.50;;;;;;;0.61;100.00;100662.88;4975388;28;20050;-78
2023/03/06 01:58:07;;;;;;;16.60;12.63;;;;;;;0.57;100.00;100666.81;4936429;28;20042;-78
2023/03/06 02:00:33;;;;;;;15.47;11.97;;;;;;;0.50;100.00;100664.78;4975450;28;20133;-78
2023/03/06 02:03:12;;;;;;;18.27;12.97;;;;;;;0.52;100.00;100653.09;4975597;28;20293;-78
2023/03/06 02:05:40;;;;;;;18.00;13.63;;;;;;;0.52;100.00;100655.75;4975442;28;20058;-82
2023/03/06 02:08:07;;;;;;;17.90;12.73;;;;;;;0.47;100.00;100648.22;4975980;28;20297;-82
2023/03/06 02:10:33;;;;;;;17.17;13.03;;;;;;;0.45;100.00;100639.53;4975794;28;20800;-82
2023/03/06 02:12:58;;;;;;;18.80;13.77;;;;;;;0.38;100.00;100642.00;4975585;28;20289;-82
2023/03/06 02:15:26;;;;;;;18.93;14.00;;;;;;;0.36;100.00;100643.94;4973097;28;20058;-82
2023/03/06 02:17:52;;;;;;;20.20;15.10;;;;;;;0.32;100.00;100639.91;4962063;28;20030;-82
2023/03/06 02:20:30;;;;;;;19.57;15.47;;;;;;;0.27;100.00;100642.19;4975866;28;20293;-81
2023/03/06 02:22:55;;;;;;;20.03;15.23;;;;;;;0.20;100.00;100641.09;4957201;28;20304;-82
2023/03/06 02:25:39;;;;;;;21.53;15.83;;;;;;;0.20;100.00;100635.78;4974699;28;20297;-82
2023/03/06 02:28:11;;;;;;;20.30;15.25;;;;;;;0.12;100.00;100632.03;4975975;28;20627;-81
2023/03/06 02:30:37;;;;;;;21.47;15.20;;;;;;;0.06;100.00;100621.97;4974965;28;20480;-81
2023/03/06 02:33:04;;;;;;;21.13;15.40;;;;;;;0.09;100.00;100619.00;4972917;28;20312;-82
2023/03/06 02:35:32;;;;;;;20.50;15.77;;;;;;;0.07;100.00;100618.31;4951173;28;20046;-82
2023/03/06 02:38:04;;;;;;;21.83;15.77;;;;;;;0.06;100.00;100618.47;4975174;28;20365;-82
2023/03/06 02:40:30;;;;;;;24.07;17.13;;;;;;;0.06;100.00;100629.13;4952336;28;20415;-78
2023/03/06 02:42:57;;;;;;;23.57;16.60;;;;;;;-0.02;100.00;100624.53;4974501;28;20304;-78
2023/03/06 02:45:34;;;;;;;22.63;17.27;;;;;;;-0.06;100.00;100623.97;4974347;28;20465;-78
2023/03/06 02:47:59;;;;;;;23.80;17.17;;;;;;;-0.11;100.00;100618.28;4949906;28;20863;-78
2023/03/06 02:50:25;;;;;;;23.40;17.33;;;;;;;-0.09;100.00;100615.47;4974751;28;20305;-78
2023/03/06 02:52:50;;;;;;;22.90;17.10;;;;;;;-0.13;100.00;100614.09;4974694;28;20065;-78
2023/03/06 02:55:15;;;;;;;22.60;17.17;;;;;;;-0.17;100.00;100613.53;4950191;28;20049;-78
2023/03/06 02:57:41;;;;;;;23.03;16.77;;;;;;;-0.18;100.00;100612.72;4974627;28;20601;-78
2023/03/06 03:00:07;;;;;;;24.27;18.33;;;;;;;-0.18;100.00;100614.50;4974141;28;20038;-78
2023/03/06 03:02:32;;;;;;;24.70;18.47;;;;;;;-0.22;100.00;100608.66;4965679;28;20533;-78
2023/03/06 03:04:58;;;;;;;23.40;18.20;;;;;;;-0.24;100.00;100613.28;4974219;28;20364;-78
2023/03/06 03:07:23;;;;;;;24.07;17.63;;;;;;;-0.29;100.00;100606.72;4974232;28;20513;-78
2023/03/06 03:09:48;;;;;;;23.27;18.37;;;;;;;-0.30;100.00;100603.22;4953882;28;20051;-78
2023/03/06 03:12:14;;;;;;;26.93;18.80;;;;;;;-0.30;100.00;100603.22;4936063;28;20058;-78
2023/03/06 03:14:39;;;;;;;25.43;18.60;;;;;;;-0.31;100.00;100590.91;4936019;28;20471;-78
2023/03/06 03:17:04;;;;;;;24.17;18.17;;;;;;;-0.33;100.00;100595.53;4935925;28;20051;-78
2023/03/06 03:19:30;;;;;;;25.43;19.10;;;;;;;-0.33;100.00;100587.53;4934096;28;20538;-78
2023/03/06 03:21:55;;;;;;;25.97;17.93;;;;;;;-0.32;100.00;100583.06;4928513;28;20058;-78
2023/03/06 03:24:21;;;;;;;23.93;18.03;;;;;;;-0.36;100.00;100583.34;4935689;28;20047;-82
2023/03/06 03:26:46;;;;;;;25.57;18.87;;;;;;;-0.35;100.00;100577.03;4935727;28;20513;-82
2023/03/06 03:29:11;;;;;;;25.87;17.90;;;;;;;-0.30;100.00;100573.94;4935937;28;20071;-82
2023/03/06 03:31:37;;;;;;;24.43;18.50;;;;;;;-0.33;100.00;100576.06;4936145;28;20487;-82
2023/03/06 03:34:02;;;;;;;25.43;18.63;;;;;;;-0.32;100.00;100567.91;4935388;28;20051;-82
2023/03/06 03:36:27;;;;;;;24.50;18.90;;;;;;;-0.30;100.00;100563.31;4945646;28;20055;-82
2023/03/06 03:38:53;;;;;;;24.07;18.13;;;;;;;-0.33;100.00;100552.91;4935747;28;20058;-82
2023/03/06 03:41:19;;;;;;;25.63;18.57;;;;;;;-0.33;100.00;100560.91;4935762;28;20051;-82
2023/03/06 03:43:44;;;;;;;24.57;18.33;;;;;;;-0.35;100.00;100552.25;4943712;28;20098;-82
2023/03/06 03:46:10;;;;;;;23.73;18.20;;;;;;;-0.35;100.00;100536.28;4936368;28;20054;-82
2023/03/06 03:48:35;;;;;;;25.73;18.20;;;;;;;-0.37;100.00;100547.06;4935641;28;20043;-82
2023/03/06 03:51:10;;;;;;;23.80;17.80;;;;;;;-0.37;100.00;100551.53;4936757;28;20594;-82
2023/03/06 03:53:36;;;;;;;24.33;18.40;;;;;;;-0.38;100.00;100533.88;4936445;28;20038;-82
2023/03/06 03:56:02;;;;;;;26.30;18.50;;;;;;;-0.35;100.00;100536.28;4920242;28;20299;-82
2023/03/06 03:58:28;;;;;;;23.63;17.63;;;;;;;-0.38;100.00;100536.56;4936005;28;20461;-81
2023/03/06 04:00:53;;;;;;;26.30;18.73;;;;;;;-0.37;100.00;100539.09;4935310;28;20299;-81
2023/03/06 04:03:18;;;;;;;23.55;17.65;;;;;;;-0.36;100.00;100539.91;4935412;28;20047;-82
2023/03/06 04:05:44;;;;;;;27.87;18.93;;;;;;;-0.38;100.00;100537.41;4935728;28;20047;-82
2023/03/06 04:08:09;;;;;;;26.73;19.30;;;;;;;-0.39;100.00;100540.22;4940528;28;20125;-82
2023/03/06 04:10:37;;;;;;;24.53;17.50;;;;;;;-0.36;100.00;100539.91;4973901;28;21420;-78
2023/03/06 04:13:02;;;;;;;26.43;17.73;;;;;;;-0.35;100.00;100528.28;4973422;28;20050;-78
2023/03/06 04:15:28;;;;;;;24.97;17.70;;;;;;;-0.38;100.00;100531.22;4971466;28;20643;-78
2023/03/06 04:17:53;;;;;;;23.83;17.40;;;;;;;-0.37;100.00;100524.91;4973639;28;20065;-78
2023/03/06 04:20:19;;;;;;;24.33;17.20;;;;;;;-0.34;100.00;100532.59;4973412;28;20038;-78
2023/03/06 04:22:44;;;;;;;23.90;17.13;;;;;;;-0.35;100.00;100523.78;4973451;28;20383;-78
2023/03/06 04:25:10;;;;;;;25.63;17.63;;;;;;;-0.33;100.00;100510.31;4954970;28;20121;-82
2023/03/06 04:27:35;;;;;;;23.87;17.00;;;;;;;-0.30;100.00;100511.84;4972727;28;20042;-82
2023/03/06 04:30:00;;;;;;;24.17;16.03;;;;;;;-0.30;100.00;100519.84;4974294;28;20039;-82
2023/03/06 04:32:26;;;;;;;24.33;17.27;;;;;;;-0.28;100.00;100515.22;4974916;28;20065;-82
2023/03/06 04:34:51;;;;;;;25.30;17.77;;;;;;;-0.29;100.00;100509.03;4965228;28;20407;-82
2023/03/06 04:37:23;;;;;;;26.83;17.80;;;;;;;-0.28;100.00;100518.72;4974509;28;20039;-82
2023/03/06 04:39:48;;;;;;;25.60;17.90;;;;;;;-0.25;100.00;100515.75;4959350;28;20042;-82
2023/03/06 04:42:14;;;;;;;26.00;17.53;;;;;;;-0.22;100.00;100520.78;4973961;28;20290;-82
2023/03/06 04:44:39;;;;;;;27.30;18.43;;;;;;;-0.21;100.00;100516.28;4973801;28;20427;-82
2023/03/06 04:47:05;;;;;;;26.90;18.33;;;;;;;-0.22;100.00;100515.47;4972306;28;20049;-82
2023/03/06 04:49:30;;;;;;;28.37;18.93;;;;;;;-0.20;100.00;100505.50;4959242;28;20199;-82
2023/03/06 04:51:56;;;;;;;27.57;19.27;;;;;;;-0.19;100.00;100504.50;4964771;28;20042;-82
2023/03/06 04:54:21;;;;;;;28.00;18.57;;;;;;;-0.18;100.00;100503.53;4973752;28;20045;-82
2023/03/06 04:56:47;;;;;;;26.83;18.57;;;;;;;-0.15;100.00;100499.72;4976539;28;20048;-82
2023/03/06 04:59:12;;;;;;;31.40;19.63;;;;;;;-0.18;100.00;100500.88;4964126;28;20666;-82
2023/03/06 05:01:37;;;;;;;28.70;19.50;;;;;;;-0.14;100.00;100509.38;4975909;28;20039;-82
2023/03/06 05:04:03;;;;;;;30.90;20.17;;;;;;;-0.10;100.00;100499.25;4969339;28;20047;-82
2023/03/06 05:06:28;;;;;;;30.17;19.63;;;;;;;-0.10;100.00;100496.59;4977715;28;20042;-82
2023/03/06 05:08:54;;;;;;;29.43;19.40;;;;;;;-0.07;100.00;100497.16;4975417;28;20311;-82
2023/03/06 05:11:19;;;;;;;29.03;19.50;;;;;;;-0.04;100.00;100501.31;4952322;28;20138;-82
2023/03/06 05:13:44;;;;;;;31.40;21.17;;;;;;;-0.04;100.00;100491.50;4973714;28;20051;-78
2023/03/06 05:16:10;;;;;;;34.00;22.03;;;;;;;0.02;100.00;100486.56;4951391;28;20049;-78
2023/03/06 05:18:36;;;;;;;35.63;24.23;;;;;;;0.03;100.00;100486.41;4951443;28;20125;-78
2023/03/06 05:21:02;;;;;;;33.13;22.67;;;;;;;0.04;100.00;100482.78;4976781;28;20462;-78
2023/03/06 05:23:29;;;;;;;34.77;22.27;;;;;;;0.02;100.00;100489.22;4951613;28;20297;-78
2023/03/06 05:25:56;;;;;;;33.30;21.80;;;;;;;0.09;100.00;100484.97;4952360;28;20042;-78
2023/03/06 05:28:22;;;;;;;35.30;22.23;;;;;;;0.07;100.00;100490.44;4975812;28;20306;-78
2023/03/06 05:30:48;;;;;;;35.77;22.27;;;;;;;0.09;100.00;100488.47;4975933;28;21774;-78
2023/03/06 05:33:13;;;;;;;33.07;22.57;;;;;;;0.13;100.00;100481.84;4975721;28;20635;-78
2023/03/06 05:35:38;;;;;;;34.73;22.93;;;;;;;0.13;100.00;100483.66;4967579;28;20138;-77
2023/03/06 05:38:04;;;;;;;34.47;22.47;;;;;;;0.13;100.00;100476.50;4951140;28;20101;-78
2023/03/06 05:40:29;;;;;;;35.47;24.07;;;;;;;0.16;100.00;100481.56;4967171;28;20050;-78
2023/03/06 05:42:54;;;;;;;35.60;22.97;;;;;;;0.18;100.00;100476.06;4974405;28;20129;-82
2023/03/06 05:45:20;;;;;;;35.73;23.93;;;;;;;0.19;100.00;100475.09;4973959;28;20046;-82
2023/03/06 05:47:45;;;;;;;36.97;26.17;;;;;;;0.24;100.00;100477.28;4976004;28;20483;-82
2023/03/06 05:50:12;;;;;;;38.50;26.63;;;;;;;0.21;100.00;100474.91;4935912;28;20073;-82
2023/03/06 05:52:41;;;;;;;37.50;25.70;;;;;;;0.22;100.00;100473.91;4976592;28;20042;-82
2023/03/06 05:55:08;;;;;;;38.43;25.20;;;;;;;0.21;100.00;100474.91;4974772;28;20383;-82
2023/03/06 05:57:34;;;;;;;39.40;26.23;;;;;;;0.18;100.00;100468.06;4976044;28;20304;-82
2023/03/06 05:59:59;;;;;;;39.97;27.10;;;;;;;0.17;100.00;100471.72;4975781;28;20396;-82
2023/03/06 06:02:24;;;;;;;40.93;27.37;;;;;;;0.25;100.00;100468.28;4967546;28;20060;-78
2023/03/06 06:04:50;;;;;;;41.70;27.80;;;;;;;0.21;100.00;100466.94;4950160;28;20050;-78
2023/03/06 06:07:16;;;;;;;40.80;28.47;;;;;;;0.25;100.00;100473.63;4974401;28;20132;-78
2023/03/06 06:09:44;;;;;;;43.00;28.37;;;;;;;0.26;100.00;100467.28;4974465;28;20141;-78
2023/03/06 06:12:11;;;;;;;41.17;27.73;;;;;;;0.27;100.00;100472.47;4972621;28;20293;-78
2023/03/06 06:14:36;;;;;;;41.10;28.53;;;;;;;0.30;100.00;100473.97;4971986;28;20863;-78
2023/03/06 06:17:02;;;;;;;42.27;29.40;;;;;;;0.31;100.00;100473.84;4966706;28;20323;-78
2023/03/06 06:19:29;;;;;;;43.73;29.27;;;;;;;0.36;100.00;100470.72;4975177;28;20771;-78
2023/03/06 06:21:55;;;;;;;41.60;29.00;;;;;;;0.32;100.00;100464.00;4951413;28;20384;-78
2023/03/06 06:24:23;;;;;;;44.07;29.40;;;;;;;0.36;100.00;100469.88;4975100;28;20296;-78
2023/03/06 06:26:50;;;;;;;43.10;29.87;;;;;;;0.37;100.00;100464.41;4975354;28;20498;-78
2023/03/06 06:29:16;;;;;;;43.80;28.83;;;;;;;0.41;100.00;100467.56;4950831;28;20297;-78
2023/03/06 06:31:41;;;;;;;44.43;30.80;;;;;;;0.42;100.00;100467.44;4974875;28;20293;-78
2023/03/06 06:34:08;;;;;;;42.30;29.33;;;;;;;0.44;100.00;100465.44;4955795;28;20551;-78
2023/03/06 06:36:34;;;;;;;42.47;29.23;;;;;;;0.45;100.00;100459.13;4974279;28;20031;-78
2023/03/06 06:39:00;;;;;;;40.73;29.27;;;;;;;0.47;100.00;100467.78;4974795;28;20791;-78
2023/03/06 06:41:26;;;;;;;41.30;28.90;;;;;;;0.48;100.00;100464.13;4937395;28;20176;-78
2023/03/06 06:43:51;;;;;;;44.73;29.80;;;;;;;0.50;100.00;100461.31;4955697;28;20042;-78
2023/03/06 06:46:17;;;;;;;40.57;28.53;;;;;;;0.56;100.00;100459.84;4974617;28;21685;-78
2023/03/06 06:48:42;;;;;;;39.87;28.87;;;;;;;0.58;100.00;100460.53;4971820;28;20049;-78
2023/03/06 06:51:08;;;;;;;44.60;30.50;;;;;;;0.59;100.00;100470.22;4974267;28;20900;-78
2023/03/06 06:53:33;;;;;;;42.03;29.63;;;;;;;0.62;100.00;100464.56;4974578;28;20045;-78
2023/03/06 06:55:59;;;;;;;43.17;30.30;;;;;;;0.61;100.00;100461.06;4974360;28;20037;-78
2023/03/06 06:58:25;;;;;;;41.83;29.00;;;;;;;0.64;100.00;100467.91;4966262;28;20046;-78
2023/03/06 07:00:51;;;;;;;39.87;28.97;;;;;;;0.65;100.00;100474.91;4950379;28;20414;-78
2023/03/06 07:03:16;;;;;;;40.53;28.70;;;;;;;0.68;100.00;100474.63;4974520;28;20294;-78
2023/03/06 07:05:41;;;;;;;41.13;29.97;;;;;;;0.71;100.00;100484.13;4974111;28;20395;-78
2023/03/06 07:08:07;;;;;;;40.80;28.97;;;;;;;0.76;100.00;100482.69;4974747;28;20047;-78
2023/03/06 07:10:33;;;;;;;40.10;29.03;;;;;;;0.78;100.00;100480.69;4973971;28;20092;-78
2023/03/06 07:12:58;;;;;;;39.87;27.83;;;;;;;0.85;100.00;100483.56;4949590;28;20052;-78
2023/03/06 07:15:25;;;;;;;38.90;27.63;;;;;;;0.90;100.00;100480.41;4951558;28;20490;-78
2023/03/06 07:17:51;;;;;;;39.27;28.13;;;;;;;0.90;100.00;100472.41;4973897;28;20080;-78
2023/03/06 07:20:18;;;;;;;40.33;29.10;;;;;;;0.98;100.00;100481.31;4964387;28;20392;-78
2023/03/06 07:22:44;;;;;;;37.53;27.60;;;;;;;1.02;100.00;100481.84;4974844;28;20070;-78
2023/03/06 07:25:09;;;;;;;37.17;26.87;;;;;;;1.04;100.00;100482.50;4975728;28;20396;-78
2023/03/06 07:27:34;;;;;;;36.07;25.67;;;;;;;1.07;100.00;100482.16;4950528;28;20042;-78
2023/03/06 07:30:00;;;;;;;36.20;26.07;;;;;;;1.10;100.00;100487.22;4974473;28;20046;-78
2023/03/06 07:32:25;;;;;;;36.10;26.13;;;;;;;1.11;100.00;100490.72;4975975;28;20129;-78
2023/03/06 07:34:51;;;;;;;35.00;25.20;;;;;;;1.14;100.00;100485.91;4973996;28;20100;-78
2023/03/06 07:37:16;;;;;;;35.10;25.97;;;;;;;1.18;100.00;100492.59;4973741;28;20620;-78
2023/03/06 07:39:41;;;;;;;36.53;27.13;;;;;;;1.21;100.00;100482.56;4973726;28;20050;-78
2023/03/06 07:42:10;;;;;;;36.77;25.73;;;;;;;1.23;100.00;100491.28;4973719;28;20105;-78
2023/03/06 07:44:36;;;;;;;34.67;25.27;;;;;;;1.23;100.00;100489.44;4973628;28;20038;-78
2023/03/06 07:47:03;;;;;;;34.73;25.77;;;;;;;1.24;100.00;100495.59;4973595;28;20286;-78
2023/03/06 07:49:29;;;;;;;35.77;25.63;;;;;;;1.28;100.00;100487.13;4971147;28;20316;-78
2023/03/06 07:51:54;;;;;;;36.50;26.50;;;;;;;1.33;100.00;100486.63;4973658;28;20290;-78
2023/03/06 07:54:20;;;;;;;37.77;26.70;;;;;;;1.35;100.00;100493.50;4974001;28;20125;-78
2023/03/06 07:56:49;;;;;;;35.73;26.63;;;;;;;1.42;100.00;100488.34;4948711;28;20085;-78
2023/03/06 07:59:14;;;;;;;36.00;26.50;;;;;;;1.45;100.00;100490.69;4975267;28;20407;-85
2023/03/06 08:01:39;;;;;;;36.03;26.97;;;;;;;1.46;100.00;100495.03;4955738;28;20070;-77
2023/03/06 08:04:05;;;;;;;36.37;27.50;;;;;;;1.52;100.00;100490.88;4964902;28;20117;-79
2023/03/06 08:06:31;;;;;;;36.33;28.10;;;;;;;1.58;100.00;100484.91;4972035;28;20519;-77
2023/03/06 08:08:57;;;;;;;35.40;27.50;;;;;;;1.53;100.00;100489.88;4969861;28;20062;-77
2023/03/06 08:11:26;;;;;;;37.70;27.53;;;;;;;1.62;100.00;100488.06;4969363;28;21921;-77
2023/03/06 08:13:52;;;;;;;37.27;27.73;;;;;;;1.69;100.00;100487.28;4970307;28;20797;-77
2023/03/06 08:16:23;;;;;;;37.67;28.73;;;;;;;1.75;100.00;100491.13;4969400;28;20562;-77
2023/03/06 08:18:48;;;;;;;36.93;27.83;;;;;;;1.81;100.00;100490.47;4946986;28;20096;-77
2023/03/06 08:21:17;;;;;;;36.27;27.13;;;;;;;1.83;100.00;100488.47;4969448;28;20042;-77
2023/03/06 08:23:43;;;;;;;37.27;28.33;;;;;;;1.91;100.00;100492.19;4978698;28;21697;-82
2023/03/06 08:26:17;;;;;;;35.10;26.80;;;;;;;1.93;100.00;100496.34;4962074;28;20046;-82
2023/03/06 08:28:43;;;;;;;35.90;27.73;;;;;;;1.93;100.00;100495.50;4965012;28;20042;-82
2023/03/06 08:31:11;;;;;;;37.23;27.90;;;;;;;2.03;100.00;100497.03;4988637;28;20049;-81
2023/03/06 08:33:38;;;;;;;36.83;28.00;;;;;;;2.07;100.00;100496.69;4987956;28;20493;-82
2023/03/06 08:36:03;;;;;;;33.17;26.13;;;;;;;2.09;100.00;100498.19;4989667;28;20410;-81
2023/03/06 08:38:29;;;;;;;33.40;26.73;;;;;;;2.19;100.00;100500.75;4989257;28;20046;-82
2023/03/06 08:40:54;;;;;;;34.23;26.70;;;;;;;2.23;100.00;100498.56;4991786;28;20038;-82
2023/03/06 08:43:19;;;;;;;32.27;25.90;;;;;;;2.29;100.00;100496.06;4980630;28;20045;-82
2023/03/06 08:45:51;;;;;;;28.17;22.63;;;;;;;2.35;100.00;100498.09;4952050;28;20111;-82
2023/03/06 08:48:17;;;;;;;31.47;24.63;;;;;;;2.58;100.00;100501.91;4977427;28;20093;-82
2023/03/06 08:50:42;;;;;;;29.77;24.10;;;;;;;2.54;100.00;100498.72;4977196;28;20045;-82
2023/03/06 08:53:07;;;;;;;27.57;22.97;;;;;;;2.54;100.00;100498.72;4976729;28;20058;-82
2023/03/06 08:55:38;;;;;;;30.17;23.80;;;;;;;2.63;100.00;100502.25;4969276;28;20509;-82
2023/03/06 08:58:04;;;;;;;30.30;24.03;;;;;;;2.81;100.00;100494.84;4977063;28;20084;-82
2023/03/06 09:00:31;;;;;;;28.43;23.03;;;;;;;2.84;100.00;100489.19;4977134;28;20614;-82
2023/03/06 09:02:56;;;;;;;24.67;20.20;;;;;;;2.89;100.00;100482.50;4976739;28;20136;-82
2023/03/06 09:05:21;;;;;;;26.90;21.30;;;;;;;3.08;100.00;100494.66;4977084;28;20108;-82
2023/03/06 09:07:47;;;;;;;21.53;17.00;;;;;;;2.97;100.00;100487.81;4976669;28;20102;-82
2023/03/06 09:10:15;;;;;;;21.90;16.90;;;;;;;3.07;100.00;100490.31;4976656;28;20144;-82
2023/03/06 09:12:40;;;;;;;21.97;17.80;;;;;;;3.13;100.00;100487.78;4977093;28;20038;-82
2023/03/06 09:15:07;;;;;;;18.67;13.33;;;;;;;3.10;100.00;100493.47;4977741;28;20486;-83
2023/03/06 09:17:32;;;;;;;20.33;15.30;;;;;;;3.05;100.00;100495.84;4976556;28;20093;-82
2023/03/06 09:19:57;;;;;;;22.47;16.37;;;;;;;3.06;100.00;100493.97;4976536;28;20080;-82
2023/03/06 09:22:23;;;;;;;17.47;13.17;;;;;;;3.23;100.00;100497.47;4968517;28;20600;-82
2023/03/06 09:24:48;;;;;;;24.27;18.00;;;;;;;3.31;100.00;100492.06;4976554;28;20050;-82
2023/03/06 09:27:13;;;;;;;19.17;15.23;;;;;;;3.34;100.00;100499.75;4968105;28;20486;-83
2023/03/06 09:29:39;;;;;;;17.80;13.67;;;;;;;3.23;100.00;100498.28;4978668;28;20835;-82
2023/03/06 09:32:04;;;;;;;19.03;14.60;;;;;;;3.38;100.00;100501.06;4976104;28;21518;-82
2023/03/06 09:34:30;;;;;;;20.03;14.90;;;;;;;3.40;100.00;100501.75;4976297;28;20498;-83
2023/03/06 09:36:55;;;;;;;17.93;12.73;;;;;;;3.46;100.00;100502.91;4976721;28;20387;-82
2023/03/06 09:39:21;;;;;;;16.60;12.37;;;;;;;3.49;100.00;100497.19;4957585;28;20055;-82
2023/03/06 09:41:48;;;;;;;15.97;11.93;;;;;;;3.45;100.00;100502.03;4979710;28;20218;-83
2023/03/06 09:44:20;;;;;;;13.37;10.37;;;;;;;3.40;100.00;100504.44;4976363;28;20407;-82
2023/03/06 09:47:10;;;;;;;14.97;10.83;;;;;;;3.41;100.00;100500.72;4976681;28;20505;-83
2023/03/06 09:50:08;;;;;;;13.80;10.30;;;;;;;3.57;100.00;100510.53;4967370;28;20566;-82
2023/03/06 09:52:44;;;;;;;13.47;10.47;;;;;;;3.70;100.00;100500.09;4970185;28;20085;-82
2023/03/06 09:55:19;;;;;;;12.43;9.37;;;;;;;3.74;100.00;100495.25;4976154;28;20042;-78
2023/03/06 09:58:19;;;;;;;11.77;8.38;;;;;;;3.84;100.00;100501.19;4975398;28;20477;-78
2023/03/06 10:01:05;;;;;;;12.50;9.57;;;;;;;3.92;100.00;100507.50;4966291;28;20047;-83
2023/03/06 10:03:51;;;;;;;11.77;9.80;;;;;;;3.99;100.00;100498.59;4975933;28;20494;-83
2023/03/06 10:06:23;;;;;;;11.30;9.20;;;;;;;4.01;100.00;100491.22;4976126;28;20049;-83
2023/03/06 10:09:13;;;;;;;10.90;8.73;;;;;;;4.16;100.00;100498.47;4980581;28;20038;-84
2023/03/06 10:11:51;;;;;;;10.47;8.00;;;;;;;4.09;100.00;100498.34;4970922;28;20462;-83
2023/03/06 10:14:45;;;;;;;13.37;8.80;;;;;;;4.30;100.00;100491.53;4970962;28;20026;-78
2023/03/06 10:17:21;;;;;;;9.45;7.43;;;;;;;4.27;100.00;100494.56;4970262;28;20042;-77
2023/03/06 10:19:46;;;;;;;10.47;7.37;;;;;;;4.27;100.00;100489.19;4970874;28;20116;-78
2023/03/06 10:22:38;;;;;;;9.40;7.20;;;;;;;4.42;100.00;100492.78;4951062;28;20503;-83
2023/03/06 10:25:22;;;;;;;10.00;8.07;;;;;;;4.66;100.00;100493.56;4971272;28;20152;-83
2023/03/06 10:28:12;;;;;;;11.23;8.20;;;;;;;4.73;100.00;100497.19;4970813;28;20545;-84
2023/03/06 10:31:00;;;;;;;10.03;7.73;;;;;;;4.82;100.00;100489.91;4972199;28;20435;-84
2023/03/06 10:33:28;;;;;;;11.80;8.63;;;;;;;4.96;100.00;100490.94;4954362;28;20046;-80
2023/03/06 10:35:54;;;;;;;15.37;11.47;;;;;;;5.00;100.00;100492.25;4969906;28;20049;-80
2023/03/06 10:38:37;;;;;;;18.10;12.43;;;;;;;5.03;100.00;100483.81;4940730;28;20498;-80
2023/03/06 10:41:06;;;;;;;15.70;10.70;;;;;;;5.01;100.00;100486.69;4965568;28;20822;-80
2023/03/06 10:43:32;;;;;;;12.87;10.50;;;;;;;5.15;100.00;100481.50;4964715;28;20141;-83
2023/03/06 10:45:58;;;;;;;14.97;11.43;;;;;;;5.14;100.00;100486.06;4966694;28;21852;-84
2023/03/06 10:48:26;;;;;;;16.87;11.73;;;;;;;5.46;100.00;100489.34;4966058;28;20141;-84
2023/03/06 10:50:53;;;;;;;15.80;10.80;;;;;;;5.48;100.00;100490.03;4966039;28;20038;-83
2023/03/06 10:53:27;;;;;;;16.83;11.97;;;;;;;5.51;100.00;100486.94;4964947;28;20514;-84
2023/03/06 10:55:58;;;;;;;15.10;11.80;;;;;;;5.27;100.00;100492.63;4940990;28;20406;-83
2023/03/06 10:58:30;;;;;;;17.23;12.80;;;;;;;5.83;100.00;100490.22;4966003;28;20046;-84
2023/03/06 11:01:18;;;;;;;15.27;10.30;;;;;;;5.78;100.00;100497.19;4965845;28;20470;-84
2023/03/06 11:03:44;;;;;;;15.93;11.13;;;;;;;5.64;100.00;100486.28;4965427;28;21111;-84
2023/03/06 11:06:29;;;;;;;15.23;10.97;;;;;;;5.47;100.00;100490.22;4964860;28;20802;-84
2023/03/06 11:09:13;;;;;;;15.27;11.05;;;;;;;5.46;100.00;100489.34;4965869;28;20077;-84
2023/03/06 11:11:39;;;;;;;16.40;11.02;;;;;;;5.23;100.00;100492.16;4966287;28;20120;-84